Time;durP1;ratioP1;P1;durP2;ratioP2;P2;SDS_P1;SDS_P2;PMS_P1;PMS_P2;Temp;Humidity;BMP_temperature;BMP_pressure;BME280_temperature;BME280_humidity;BME280_pressure;Samples;Min_cycle;Max_cycle;Signal;HPM_P1;HPM_P2
2022/09/02 00:01:57;;;;;;;4.45;1.13;;;16.10;78.40;;;;;;5030176;28;20033;-79
2022/09/02 00:04:26;;;;;;;1.80;1.00;;;16.10;78.50;;;;;;5016185;28;20053;-78
2022/09/02 00:06:53;;;;;;;2.28;0.95;;;16.10;78.60;;;;;;5026602;28;20043;-79
2022/09/02 00:09:22;;;;;;;4.20;1.10;;;16.10;78.70;;;;;;5034015;28;20064;-79
2022/09/02 00:11:49;;;;;;;1.08;0.90;;;16.10;78.70;;;;;;5025905;28;20041;-78
2022/09/02 00:14:23;;;;;;;1.27;0.90;;;16.10;78.80;;;;;;5036246;28;20064;-79
2022/09/02 00:16:52;;;;;;;1.65;0.88;;;16.10;78.90;;;;;;5033879;28;20085;-78
2022/09/02 00:19:22;;;;;;;1.20;1.00;;;16.10;79.00;;;;;;5028698;28;20029;-78
2022/09/02 00:21:49;;;;;;;2.95;1.30;;;16.10;79.10;;;;;;5031604;28;20041;-80
2022/09/02 00:24:17;;;;;;;4.32;1.15;;;16.00;79.20;;;;;;5013012;28;20171;-79
2022/09/02 00:26:43;;;;;;;1.85;1.00;;;16.00;79.30;;;;;;5029779;28;20142;-79
2022/09/02 00:29:12;;;;;;;2.47;1.00;;;16.00;79.40;;;;;;5027673;28;20515;-78
2022/09/02 00:31:38;;;;;;;3.92;1.10;;;16.00;79.60;;;;;;5031001;28;20030;-79
2022/09/02 00:34:04;;;;;;;2.42;1.10;;;16.00;79.80;;;;;;5032056;28;20520;-79
2022/09/02 00:36:32;;;;;;;1.33;1.00;;;16.00;79.90;;;;;;5043407;28;20041;-79
2022/09/02 00:38:58;;;;;;;1.67;1.00;;;15.90;80.00;;;;;;5048919;28;20030;-79
2022/09/02 00:41:26;;;;;;;2.20;1.00;;;16.00;80.10;;;;;;5043811;28;20498;-78
2022/09/02 00:43:58;;;;;;;2.42;1.10;;;15.90;80.20;;;;;;5056690;28;20033;-79
2022/09/02 00:46:26;;;;;;;1.83;1.13;;;15.90;80.30;;;;;;5032035;28;20504;-79
2022/09/02 00:48:57;;;;;;;2.25;1.20;;;15.90;80.50;;;;;;5024694;28;20037;-79
2022/09/02 00:51:29;;;;;;;1.10;1.00;;;15.80;80.60;;;;;;5013673;28;20132;-79
2022/09/02 00:53:55;;;;;;;1.65;1.00;;;16.00;80.80;;;;;;5029988;28;20486;-79
2022/09/02 00:56:26;;;;;;;1.27;0.90;;;15.80;80.90;;;;;;5018825;28;20138;-78
2022/09/02 00:58:52;;;;;;;2.88;1.00;;;15.80;81.10;;;;;;5049692;28;20233;-78
2022/09/02 01:01:18;;;;;;;1.63;0.88;;;15.80;81.30;;;;;;5012695;28;20045;-79
2022/09/02 01:03:50;;;;;;;3.88;1.15;;;16.10;81.70;;;;;;5019842;28;20449;-79
2022/09/02 01:06:23;;;;;;;5.82;1.10;;;15.70;81.80;;;;;;5035700;28;20099;-79
2022/09/02 01:08:58;;;;;;;2.83;0.95;;;15.70;81.80;;;;;;5030950;28;20473;-79
2022/09/02 01:11:31;;;;;;;1.40;1.10;;;15.60;82.00;;;;;;5030359;28;20091;-79
2022/09/02 01:14:00;;;;;;;0.90;0.85;;;15.60;82.20;;;;;;5031636;28;20545;-78
2022/09/02 01:16:33;;;;;;;2.80;1.13;;;15.70;82.40;;;;;;5030257;28;20053;-79
2022/09/02 01:19:02;;;;;;;2.08;1.05;;;15.60;82.50;;;;;;5034053;28;20052;-78
2022/09/02 01:21:27;;;;;;;1.52;1.10;;;15.60;82.70;;;;;;5033127;28;20047;-79
2022/09/02 01:23:54;;;;;;;1.73;1.02;;;15.60;82.80;;;;;;5021525;28;20124;-78
2022/09/02 01:26:22;;;;;;;1.45;0.80;;;15.60;82.90;;;;;;5031539;28;20123;-78
2022/09/02 01:28:47;;;;;;;1.88;1.00;;;15.60;83.10;;;;;;5028762;28;20042;-78
2022/09/02 01:31:15;;;;;;;1.98;1.10;;;15.60;83.30;;;;;;5043182;28;20050;-78
2022/09/02 01:33:40;;;;;;;1.98;1.10;;;15.50;83.60;;;;;;5043752;28;20091;-79
2022/09/02 01:36:07;;;;;;;1.45;1.10;;;15.60;83.70;;;;;;5034511;28;20069;-79
2022/09/02 01:38:32;;;;;;;3.10;1.30;;;15.50;83.80;;;;;;5031370;28;20461;-79
2022/09/02 01:40:58;;;;;;;1.48;1.10;;;15.60;84.00;;;;;;5042743;28;20140;-79
2022/09/02 01:43:25;;;;;;;1.52;1.13;;;15.50;84.20;;;;;;5037382;28;20509;-79
2022/09/02 01:45:54;;;;;;;1.23;1.00;;;15.50;84.40;;;;;;5031314;28;20037;-79
2022/09/02 01:48:23;;;;;;;;;;;15.50;84.50;;;;;;5018771;28;20049;-78
2022/09/02 01:50:53;;;;;;;1.83;1.20;;;15.50;84.90;;;;;;5026617;28;19935;-79
2022/09/02 01:53:27;;;;;;;2.65;0.80;;;15.40;84.90;;;;;;5119798;27;20047;-62
2022/09/02 01:55:52;;;;;;;1.55;1.10;;;15.40;85.20;;;;;;5105617;28;20543;-62
2022/09/02 01:58:18;;;;;;;2.67;1.10;;;15.40;85.40;;;;;;5108191;28;20043;-62
2022/09/02 02:00:44;;;;;;;3.03;1.10;;;15.40;85.60;;;;;;5105486;28;20077;-62
2022/09/02 02:03:10;;;;;;;1.92;0.93;;;15.40;86.00;;;;;;5097060;28;20420;-62
2022/09/02 02:05:36;;;;;;;1.08;1.00;;;15.30;86.20;;;;;;5114904;28;20039;-62
2022/09/02 02:08:01;;;;;;;0.95;0.88;;;15.30;86.40;;;;;;5108215;27;20036;-62
2022/09/02 02:10:27;;;;;;;1.42;1.13;;;15.30;86.60;;;;;;5112125;28;20560;-63
2022/09/02 02:12:53;;;;;;;1.40;1.10;;;15.30;86.90;;;;;;5104690;28;20043;-63
2022/09/02 02:15:20;;;;;;;4.05;1.30;;;15.30;87.10;;;;;;5101275;28;20391;-63
2022/09/02 02:17:46;;;;;;;2.30;1.20;;;15.20;87.50;;;;;;5117046;28;20067;-63
2022/09/02 02:20:14;;;;;;;3.47;1.30;;;15.20;87.60;;;;;;5091187;27;20805;-63
2022/09/02 02:22:41;;;;;;;1.48;1.00;;;15.20;87.90;;;;;;5093945;28;20093;-63
2022/09/02 02:25:08;;;;;;;1.27;1.10;;;15.20;88.00;;;;;;5095727;28;20072;-63
2022/09/02 02:27:34;;;;;;;2.08;1.20;;;15.20;88.20;;;;;;5103971;28;20044;-63
2022/09/02 02:30:00;;;;;;;1.90;1.08;;;15.20;88.40;;;;;;5100267;28;20035;-63
2022/09/02 02:32:25;;;;;;;3.83;1.10;;;15.20;88.50;;;;;;5087999;28;20044;-63
2022/09/02 02:34:55;;;;;;;1.88;1.20;;;15.20;88.70;;;;;;5106671;27;20032;-63
2022/09/02 02:37:20;;;;;;;1.40;1.10;;;15.20;88.80;;;;;;5104946;28;20375;-63
2022/09/02 02:39:46;;;;;;;2.20;1.30;;;15.20;88.90;;;;;;5105501;28;20145;-63
2022/09/02 02:42:12;;;;;;;1.90;1.23;;;15.10;89.10;;;;;;5102840;28;20390;-63
2022/09/02 02:44:39;;;;;;;4.50;1.20;;;15.20;89.40;;;;;;5096615;28;20117;-63
2022/09/02 02:47:06;;;;;;;2.53;1.10;;;15.20;89.60;;;;;;5107123;27;20503;-63
2022/09/02 02:49:36;;;;;;;1.35;1.10;;;15.00;89.60;;;;;;5105173;28;20073;-63
2022/09/02 02:52:03;;;;;;;3.60;1.20;;;15.10;89.90;;;;;;5111943;28;20035;-63
2022/09/02 02:54:28;;;;;;;3.17;1.13;;;15.10;90.00;;;;;;5107537;28;20539;-63
2022/09/02 02:56:54;;;;;;;3.10;1.17;;;15.10;90.10;;;;;;5119744;27;20027;-63
2022/09/02 02:59:20;;;;;;;1.63;1.13;;;15.10;90.20;;;;;;5105411;27;20040;-63
2022/09/02 03:01:45;;;;;;;2.53;1.20;;;15.10;90.30;;;;;;5111086;28;20036;-63
2022/09/02 03:04:11;;;;;;;2.00;1.20;;;15.10;90.30;;;;;;5106283;28;20075;-63
2022/09/02 03:06:37;;;;;;;2.90;1.30;;;15.00;90.40;;;;;;5093025;28;20040;-63
2022/09/02 03:09:04;;;;;;;3.05;1.52;;;15.00;90.50;;;;;;5097169;28;20069;-63
2022/09/02 03:11:29;;;;;;;1.75;1.20;;;15.00;90.60;;;;;;5106187;28;20119;-63
2022/09/02 03:13:55;;;;;;;2.85;1.20;;;15.00;90.80;;;;;;5097818;28;20078;-63
2022/09/02 03:16:21;;;;;;;1.40;1.08;;;15.00;90.80;;;;;;5095407;28;20032;-63
2022/09/02 03:18:49;;;;;;;2.97;1.27;;;15.00;90.90;;;;;;5096644;28;20055;-63
2022/09/02 03:21:14;;;;;;;3.03;1.30;;;15.00;91.00;;;;;;5105775;28;20486;-63
2022/09/02 03:23:41;;;;;;;2.20;1.30;;;14.90;91.00;;;;;;5112761;27;20056;-63
2022/09/02 03:26:13;;;;;;;3.03;1.40;;;14.90;91.10;;;;;;5105547;28;20031;-63
2022/09/02 03:28:39;;;;;;;;;;;14.90;91.20;;;;;;5099711;28;20033;-63
2022/09/02 03:31:05;;;;;;;1.10;1.00;;;14.90;91.40;;;;;;5094598;28;20293;-63
2022/09/02 03:33:31;;;;;;;2.42;1.30;;;14.90;91.40;;;;;;5095417;28;20086;-63
2022/09/02 03:35:57;;;;;;;2.17;1.40;;;14.90;91.70;;;;;;5100516;28;20040;-63
2022/09/02 03:38:23;;;;;;;1.65;1.20;;;14.80;91.60;;;;;;5103996;28;20429;-63
2022/09/02 03:40:48;;;;;;;2.72;1.30;;;14.80;91.70;;;;;;5091326;28;20036;-63
2022/09/02 03:43:14;;;;;;;3.65;1.20;;;14.80;91.80;;;;;;5098982;28;20094;-63
2022/09/02 03:45:40;;;;;;;1.30;1.20;;;14.80;91.90;;;;;;5100259;28;20040;-63
2022/09/02 03:48:07;;;;;;;1.63;1.27;;;14.80;92.00;;;;;;5086843;28;20044;-63
2022/09/02 03:50:38;;;;;;;3.10;1.23;;;14.80;92.10;;;;;;5089675;28;20139;-63
2022/09/02 03:53:05;;;;;;;2.65;1.40;;;14.70;92.10;;;;;;5103524;28;20050;-63
2022/09/02 03:55:31;;;;;;;2.70;1.42;;;14.80;92.30;;;;;;5106776;28;20453;-63
2022/09/02 03:57:57;;;;;;;1.38;1.05;;;14.80;92.40;;;;;;5103336;28;20115;-63
2022/09/02 04:00:27;;;;;;;2.03;1.40;;;14.80;92.70;;;;;;5089537;28;20024;-63
2022/09/02 04:02:54;;;;;;;2.83;1.40;;;14.80;92.80;;;;;;5083783;28;20043;-63
2022/09/02 04:05:21;;;;;;;1.80;1.23;;;14.70;92.60;;;;;;5091177;28;20047;-63
2022/09/02 04:07:50;;;;;;;3.63;1.38;;;14.70;92.80;;;;;;5098135;28;20048;-63
2022/09/02 04:10:15;;;;;;;1.73;1.23;;;14.70;92.90;;;;;;5086397;28;20048;-63
2022/09/02 04:12:42;;;;;;;1.80;1.33;;;14.70;92.90;;;;;;5097714;28;20039;-63
2022/09/02 04:15:09;;;;;;;1.65;1.20;;;14.70;93.10;;;;;;5089265;28;20067;-63
2022/09/02 04:17:36;;;;;;;2.25;1.30;;;14.70;93.20;;;;;;5098757;28;20069;-63
2022/09/02 04:20:07;;;;;;;1.35;1.25;;;14.60;93.20;;;;;;5093123;28;20047;-63
2022/09/02 04:22:33;;;;;;;3.10;1.30;;;14.60;93.30;;;;;;5101473;28;20507;-63
2022/09/02 04:24:59;;;;;;;1.75;1.35;;;14.60;93.40;;;;;;5094346;28;20031;-63
2022/09/02 04:27:25;;;;;;;1.58;1.40;;;14.70;93.50;;;;;;5098793;28;20093;-63
2022/09/02 04:29:50;;;;;;;1.27;1.17;;;14.60;93.60;;;;;;5081984;28;20031;-63
2022/09/02 04:32:16;;;;;;;4.05;2.25;;;14.60;93.70;;;;;;5098402;28;20056;-63
2022/09/02 04:34:42;;;;;;;2.10;1.50;;;14.50;93.80;;;;;;5100431;28;20494;-63
2022/09/02 04:37:08;;;;;;;2.15;1.60;;;14.60;93.90;;;;;;5096714;28;20032;-63
2022/09/02 04:39:33;;;;;;;3.58;1.70;;;14.50;93.90;;;;;;5091366;28;20074;-63
2022/09/02 04:41:59;;;;;;;3.10;1.58;;;14.50;93.90;;;;;;5102884;28;20589;-63
2022/09/02 04:44:25;;;;;;;3.03;1.50;;;14.50;94.10;;;;;;5098820;28;20693;-63
2022/09/02 04:46:51;;;;;;;2.97;1.85;;;14.50;94.10;;;;;;5097839;28;20043;-63
2022/09/02 04:49:18;;;;;;;1.90;1.40;;;14.50;94.30;;;;;;5100909;28;20488;-63
2022/09/02 04:51:44;;;;;;;2.65;1.48;;;14.50;94.30;;;;;;5093710;28;20043;-66
2022/09/02 04:54:09;;;;;;;2.75;1.50;;;14.50;94.40;;;;;;5093988;28;20034;-63
2022/09/02 04:56:37;;;;;;;3.03;1.83;;;14.50;94.50;;;;;;5087074;28;20054;-63
2022/09/02 04:59:03;;;;;;;4.00;1.42;;;14.40;94.60;;;;;;5091768;28;20391;-63
2022/09/02 05:01:31;;;;;;;2.08;1.42;;;14.50;94.70;;;;;;5099938;28;20039;-63
2022/09/02 05:03:58;;;;;;;2.83;1.52;;;14.40;94.70;;;;;;5102224;28;20501;-63
2022/09/02 05:06:26;;;;;;;5.28;1.58;;;14.50;94.80;;;;;;5092262;28;20428;-63
2022/09/02 05:08:53;;;;;;;2.00;1.40;;;14.50;94.80;;;;;;5082895;28;20042;-63
2022/09/02 05:11:22;;;;;;;2.08;1.40;;;14.50;95.00;;;;;;5085405;28;20116;-63
2022/09/02 05:13:52;;;;;;;1.80;1.20;;;14.50;95.00;;;;;;5091077;28;20395;-63
2022/09/02 05:16:20;;;;;;;3.22;1.30;;;14.50;95.00;;;;;;5094684;28;20405;-63
2022/09/02 05:18:49;;;;;;;3.83;1.70;;;14.40;95.00;;;;;;5086792;28;20043;-63
2022/09/02 05:21:15;;;;;;;3.33;1.48;;;14.50;95.10;;;;;;5089824;28;20083;-63
2022/09/02 05:23:41;;;;;;;3.75;1.60;;;14.50;95.20;;;;;;5096579;28;20040;-63
2022/09/02 05:26:09;;;;;;;2.72;1.60;;;14.50;95.30;;;;;;5082583;28;20036;-63
2022/09/02 05:28:35;;;;;;;2.38;1.63;;;14.50;95.40;;;;;;5086544;28;20055;-63
2022/09/02 05:31:04;;;;;;;2.70;1.50;;;14.50;95.40;;;;;;5097667;28;20024;-63
2022/09/02 05:33:31;;;;;;;1.75;1.48;;;14.50;95.50;;;;;;5092733;28;20039;-63
2022/09/02 05:35:57;;;;;;;3.05;1.60;;;14.40;95.60;;;;;;5097132;28;20560;-64
2022/09/02 05:38:24;;;;;;;1.77;1.50;;;14.50;95.70;;;;;;5106300;28;20055;-64
2022/09/02 05:40:49;;;;;;;2.75;1.30;;;14.50;95.80;;;;;;5101698;28;20031;-64
2022/09/02 05:43:15;;;;;;;2.20;1.45;;;14.50;95.90;;;;;;5095843;28;20516;-64
2022/09/02 05:45:41;;;;;;;2.67;1.50;;;14.40;95.90;;;;;;5101583;28;20040;-64
2022/09/02 05:49:05;;;;;;;3.47;1.40;;;14.50;96.00;;;;;;5094507;28;20078;-63
2022/09/02 05:50:52;;;;;;;3.53;1.60;;;14.50;96.10;;;;;;5083270;28;20040;-63
2022/09/02 05:53:18;;;;;;;2.65;1.23;;;14.50;96.20;;;;;;5094657;28;20168;-63
2022/09/02 05:55:43;;;;;;;1.77;1.58;;;14.50;96.30;;;;;;5088015;28;20089;-63
2022/09/02 05:58:09;;;;;;;2.53;1.40;;;14.50;96.50;;;;;;5082051;28;20527;-63
2022/09/02 06:00:36;;;;;;;2.15;1.45;;;14.50;96.50;;;;;;5087595;28;20031;-63
2022/09/02 06:03:02;;;;;;;1.75;1.45;;;14.50;96.60;;;;;;5104071;28;20497;-63
2022/09/02 06:05:28;;;;;;;3.10;1.70;;;14.50;96.60;;;;;;5106116;28;20044;-63
2022/09/02 06:07:54;;;;;;;1.73;1.42;;;14.50;96.70;;;;;;5092824;28;20111;-63
2022/09/02 06:10:19;;;;;;;2.63;1.60;;;14.60;97.10;;;;;;5087954;28;20028;-65
2022/09/02 06:12:45;;;;;;;3.72;1.52;;;14.60;97.00;;;;;;5098284;28;20097;-64
2022/09/02 06:15:11;;;;;;;4.20;1.55;;;14.50;97.10;;;;;;5096602;28;20456;-63
2022/09/02 06:17:36;;;;;;;7.35;2.17;;;14.60;97.10;;;;;;5101846;28;20035;-63
2022/09/02 06:20:03;;;;;;;3.85;1.50;;;14.60;97.10;;;;;;5094933;28;20024;-63
2022/09/02 06:22:28;;;;;;;6.32;1.77;;;14.60;97.20;;;;;;5101260;28;20086;-63
2022/09/02 06:24:54;;;;;;;4.25;1.98;;;14.60;97.50;;;;;;5096387;28;20102;-63
2022/09/02 06:27:20;;;;;;;7.40;2.05;;;14.60;97.30;;;;;;5096847;28;20047;-63
2022/09/02 06:29:46;;;;;;;3.67;1.60;;;14.70;97.30;;;;;;5101322;28;20040;-62
2022/09/02 06:32:11;;;;;;;2.80;1.65;;;14.70;97.40;;;;;;5090032;28;20386;-63
2022/09/02 06:34:38;;;;;;;3.55;1.77;;;14.70;97.50;;;;;;5090321;28;20032;-63
2022/09/02 06:37:03;;;;;;;4.93;1.95;;;14.70;97.50;;;;;;5096887;28;20115;-63
2022/09/02 06:39:29;;;;;;;3.38;1.73;;;14.70;97.70;;;;;;5084869;28;20119;-62
2022/09/02 06:41:55;;;;;;;1.83;1.42;;;14.70;97.50;;;;;;5099591;28;20039;-63
2022/09/02 06:44:20;;;;;;;2.35;1.52;;;14.80;97.90;;;;;;5108214;28;20489;-63
2022/09/02 06:46:52;;;;;;;2.58;1.63;;;14.80;97.70;;;;;;5096853;28;20039;-62
2022/09/02 06:49:18;;;;;;;4.43;1.63;;;14.80;97.70;;;;;;5094058;28;20067;-62
2022/09/02 06:51:46;;;;;;;3.63;1.73;;;14.90;97.80;;;;;;5084396;28;20079;-62
2022/09/02 06:54:16;;;;;;;3.67;1.70;;;14.90;97.80;;;;;;5100631;28;20037;-62
2022/09/02 06:56:43;;;;;;;2.10;1.63;;;14.90;97.80;;;;;;5102746;27;20036;-62
2022/09/02 06:59:09;;;;;;;3.67;2.00;;;15.00;98.10;;;;;;5093410;28;20032;-64
2022/09/02 07:01:35;;;;;;;3.05;1.50;;;15.00;98.10;;;;;;5105126;27;20040;-63
2022/09/02 07:06:50;;;;;;;3.20;1.90;;;15.00;98.10;;;;;;5098102;28;20131;-63
2022/09/02 07:09:19;;;;;;;3.38;1.73;;;15.10;98.20;;;;;;5093002;28;20406;-63
2022/09/02 07:11:49;;;;;;;2.55;1.63;;;15.20;98.20;;;;;;5097609;28;20052;-62
2022/09/02 07:14:19;;;;;;;3.60;1.60;;;15.10;98.20;;;;;;5093449;28;20064;-63
2022/09/02 07:16:50;;;;;;;4.22;1.63;;;15.20;98.10;;;;;;5098401;28;20050;-62
2022/09/02 07:19:17;;;;;;;4.53;1.80;;;15.30;98.10;;;;;;5098037;28;20044;-63
2022/09/02 07:21:42;;;;;;;4.25;1.80;;;15.40;98.20;;;;;;5095730;28;20036;-64
2022/09/02 07:24:11;;;;;;;3.78;1.75;;;15.40;98.10;;;;;;5097641;28;20045;-63
2022/09/02 07:26:38;;;;;;;2.65;1.73;;;15.50;98.10;;;;;;5093462;28;20038;-62
2022/09/02 07:29:07;;;;;;;3.17;1.50;;;15.50;98.00;;;;;;5091939;28;20039;-65
2022/09/02 07:31:39;;;;;;;4.43;1.83;;;15.60;98.10;;;;;;5094211;28;20541;-62
2022/09/02 07:34:06;;;;;;;2.72;1.60;;;15.60;98.10;;;;;;5089951;28;20099;-63
2022/09/02 07:36:33;;;;;;;3.10;1.63;;;15.70;97.90;;;;;;5102850;28;20035;-63
2022/09/02 07:39:00;;;;;;;2.63;1.80;;;15.70;98.00;;;;;;5095525;28;20043;-62
2022/09/02 07:41:26;;;;;;;4.05;1.80;;;15.80;98.10;;;;;;5102955;28;20332;-62
2022/09/02 07:43:52;;;;;;;3.13;1.70;;;15.80;98.30;;;;;;5100703;28;20211;-62
2022/09/02 07:46:18;;;;;;;2.50;1.88;;;15.90;98.20;;;;;;5104567;28;20100;-63
2022/09/02 07:48:44;;;;;;;4.10;1.67;;;15.90;98.00;;;;;;5092988;28;20317;-63
2022/09/02 07:51:11;;;;;;;2.25;1.60;;;16.00;97.80;;;;;;5098740;28;20080;-62
2022/09/02 07:53:37;;;;;;;3.00;1.60;;;16.00;97.80;;;;;;5099954;28;20044;-63
2022/09/02 07:56:03;;;;;;;4.93;1.80;;;16.10;97.80;;;;;;5108123;28;20043;-63
2022/09/02 07:58:29;;;;;;;2.60;1.52;;;16.10;98.00;;;;;;5100260;28;20088;-63
2022/09/02 08:00:55;;;;;;;5.10;1.80;;;16.20;97.70;;;;;;5104824;28;20115;-63
2022/09/02 08:03:22;;;;;;;6.13;1.95;;;16.20;97.60;;;;;;5092868;28;20083;-62
2022/09/02 08:05:48;;;;;;;2.92;1.67;;;16.30;97.60;;;;;;5103403;28;20031;-62
2022/09/02 08:08:18;;;;;;;2.38;1.65;;;16.40;97.50;;;;;;5076289;28;20521;-63
2022/09/02 08:10:47;;;;;;;2.97;1.70;;;16.40;97.50;;;;;;5074033;28;20040;-63
2022/09/02 08:13:13;;;;;;;3.05;1.63;;;16.50;97.40;;;;;;5069423;28;20478;-63
2022/09/02 08:15:39;;;;;;;2.88;1.50;;;16.60;97.30;;;;;;5070601;28;20498;-63
2022/09/02 08:18:06;;;;;;;5.43;1.67;;;16.60;97.30;;;;;;5069084;28;20036;-63
2022/09/02 08:20:32;;;;;;;7.50;1.67;;;16.70;97.30;;;;;;5100181;28;20035;-63
2022/09/02 08:22:59;;;;;;;3.97;1.58;;;16.80;97.30;;;;;;5088695;28;20044;-63
2022/09/02 08:25:25;;;;;;;2.90;1.70;;;16.80;97.00;;;;;;5084533;28;20071;-63
2022/09/02 08:27:53;;;;;;;1.60;1.50;;;16.90;96.90;;;;;;5096202;28;20040;-62
2022/09/02 08:30:19;;;;;;;2.95;1.85;;;16.90;96.80;;;;;;5087021;28;20306;-63
2022/09/02 08:32:45;;;;;;;5.43;1.75;;;17.00;96.70;;;;;;5079248;28;20041;-63
2022/09/02 08:35:10;;;;;;;3.60;1.60;;;17.10;96.70;;;;;;5088146;28;20036;-63
2022/09/02 08:37:37;;;;;;;2.58;1.60;;;17.20;96.50;;;;;;5089038;28;20120;-63
2022/09/02 08:40:06;;;;;;;6.68;1.65;;;17.30;96.30;;;;;;5090579;28;20485;-63
2022/09/02 08:42:43;;;;;;;2.47;1.80;;;17.40;96.00;;;;;;5099724;28;20044;-64
2022/09/02 08:45:27;;;;;;;6.18;1.63;;;17.50;95.60;;;;;;5089781;28;20097;-62
2022/09/02 08:48:51;;;;;;;1.88;1.50;;;17.60;95.50;;;;;;5110293;27;20045;-63
2022/09/02 08:51:49;;;;;;;3.88;1.60;;;17.90;95.40;;;;;;5048165;28;20052;-63
2022/09/02 08:54:33;;;;;;;2.35;1.77;;;18.00;95.00;;;;;;5006197;28;20053;-63
2022/09/02 08:56:59;;;;;;;5.13;1.55;;;18.20;94.70;;;;;;5096440;28;20040;-63
2022/09/02 08:59:29;;;;;;;4.40;1.60;;;18.40;94.80;;;;;;5095906;28;20036;-63
2022/09/02 09:02:27;;;;;;;5.13;1.80;;;18.50;94.60;;;;;;5081300;28;20085;-63
2022/09/02 09:04:55;;;;;;;2.15;1.50;;;18.80;94.30;;;;;;5084158;28;20051;-63
2022/09/02 09:07:39;;;;;;;4.43;1.50;;;19.10;94.30;;;;;;5088450;28;20051;-63
2022/09/02 09:10:15;;;;;;;3.35;1.55;;;19.30;93.10;;;;;;5104161;27;20051;-63
2022/09/02 09:12:56;;;;;;;3.10;1.48;;;19.60;93.00;;;;;;5093898;28;20044;-64
2022/09/02 09:15:41;;;;;;;2.47;1.50;;;19.80;92.20;;;;;;5096024;28;20043;-63
2022/09/02 09:18:19;;;;;;;2.47;1.52;;;20.10;91.50;;;;;;5087688;28;20067;-64
2022/09/02 09:20:45;;;;;;;3.05;1.30;;;20.30;91.40;;;;;;5106961;28;20031;-63
2022/09/02 09:23:28;;;;;;;3.72;1.55;;;20.50;90.80;;;;;;5085638;28;20036;-63
2022/09/02 09:26:07;;;;;;;1.60;1.35;;;20.60;90.00;;;;;;5081052;28;20440;-63
2022/09/02 09:28:42;;;;;;;3.70;1.70;;;20.80;88.70;;;;;;5087193;28;20049;-67
2022/09/02 09:31:14;;;;;;;3.92;1.67;;;20.90;87.20;;;;;;5086839;28;20035;-63
2022/09/02 09:34:03;;;;;;;2.92;1.30;;;21.10;87.30;;;;;;5091118;28;20043;-63
2022/09/02 09:36:45;;;;;;;4.32;1.50;;;21.40;86.40;;;;;;5089836;28;20044;-66
2022/09/02 09:39:28;;;;;;;2.45;1.25;;;21.60;85.10;;;;;;5092420;28;20636;-64
2022/09/02 09:42:01;;;;;;;4.25;1.48;;;21.80;84.00;;;;;;5081276;28;20490;-63
2022/09/02 09:44:36;;;;;;;3.17;1.27;;;21.90;83.00;;;;;;5085616;28;20052;-67
2022/09/02 09:47:09;;;;;;;2.65;1.27;;;22.10;80.80;;;;;;5082263;28;20040;-63
2022/09/02 09:49:36;;;;;;;2.47;1.50;;;22.20;80.80;;;;;;5097155;28;20552;-63
2022/09/02 09:52:03;;;;;;;6.30;1.48;;;22.30;80.70;;;;;;5079846;28;20044;-64
2022/09/02 09:54:29;;;;;;;5.40;1.30;;;22.50;77.40;;;;;;5095346;28;20525;-63
2022/09/02 09:56:56;;;;;;;1.30;1.10;;;22.50;78.10;;;;;;5091437;28;20074;-63
2022/09/02 09:59:55;;;;;;;2.20;1.30;;;22.60;77.00;;;;;;5089711;28;20051;-63
2022/09/02 10:02:24;;;;;;;3.33;1.00;;;22.80;73.70;;;;;;5075471;28;20463;-64
2022/09/02 10:05:25;;;;;;;4.07;1.40;;;22.90;72.10;;;;;;5086994;28;20032;-64
2022/09/02 10:08:03;;;;;;;2.47;1.33;;;23.00;71.00;;;;;;5088412;28;20044;-64
2022/09/02 10:10:31;;;;;;;2.50;1.35;;;23.10;71.70;;;;;;5095816;28;20293;-64
2022/09/02 10:13:17;;;;;;;3.13;1.30;;;23.30;71.60;;;;;;5098513;28;20064;-64
2022/09/02 10:16:01;;;;;;;2.47;1.38;;;23.40;69.80;;;;;;5089548;28;20037;-64
2022/09/02 10:18:52;;;;;;;4.28;1.20;;;23.60;67.40;;;;;;5091670;28;20036;-64
2022/09/02 10:21:51;;;;;;;2.33;1.10;;;23.70;66.80;;;;;;5105235;28;20531;-64
2022/09/02 10:24:30;;;;;;;2.45;1.20;;;23.80;66.60;;;;;;5096654;28;20032;-64
2022/09/02 10:26:59;;;;;;;1.83;1.15;;;24.00;66.50;;;;;;5089870;28;20114;-64
2022/09/02 10:29:34;;;;;;;3.17;1.45;;;24.00;65.70;;;;;;5080385;28;20028;-64
2022/09/02 10:32:11;;;;;;;4.32;1.20;;;24.20;65.20;;;;;;5090439;28;20573;-63
2022/09/02 10:34:40;;;;;;;1.88;1.40;;;24.20;63.60;;;;;;5102467;28;20039;-63
2022/09/02 10:37:24;;;;;;;3.30;1.48;;;24.30;65.10;;;;;;5093697;27;20036;-64
2022/09/02 10:39:55;;;;;;;2.40;1.20;;;24.40;62.10;;;;;;5093650;28;20036;-64
2022/09/02 10:42:33;;;;;;;2.33;1.30;;;24.60;63.30;;;;;;5086381;28;20040;-64
2022/09/02 10:45:01;;;;;;;3.17;1.40;;;24.60;62.40;;;;;;5099159;28;20086;-65
2022/09/02 10:47:39;;;;;;;2.13;1.42;;;24.70;62.80;;;;;;5092385;28;20047;-65
2022/09/02 10:50:22;;;;;;;3.92;1.13;;;24.80;61.00;;;;;;5092295;28;20048;-64
2022/09/02 10:53:03;;;;;;;5.28;1.40;;;24.80;60.90;;;;;;5092678;28;20135;-64
2022/09/02 10:55:41;;;;;;;4.47;1.70;;;24.90;60.70;;;;;;5089128;28;20044;-65
2022/09/02 10:58:21;;;;;;;1.85;1.10;;;24.90;61.40;;;;;;5093821;28;20062;-63
2022/09/02 11:00:51;;;;;;;1.35;1.08;;;24.90;60.80;;;;;;5087457;28;20032;-66
2022/09/02 11:03:45;;;;;;;3.08;1.30;;;25.00;60.90;;;;;;5089407;28;20047;-64
2022/09/02 11:06:38;;;;;;;2.47;1.42;;;25.10;60.00;;;;;;5101089;28;20483;-67
2022/09/02 11:09:13;;;;;;;3.15;1.55;;;25.30;59.10;;;;;;5084885;28;20044;-65
2022/09/02 11:11:52;;;;;;;3.05;1.15;;;25.40;59.90;;;;;;5106552;28;20055;-66
2022/09/02 11:14:24;;;;;;;3.50;1.40;;;25.50;59.90;;;;;;5086595;28;20044;-66
2022/09/02 11:17:25;;;;;;;8.85;1.73;;;25.60;58.50;;;;;;5098929;28;20102;-64
2022/09/02 11:20:09;;;;;;;4.47;1.20;;;25.60;58.30;;;;;;5028963;27;20087;-65
2022/09/02 11:22:56;;;;;;;1.80;1.10;;;25.70;58.60;;;;;;5098021;28;20048;-66
2022/09/02 11:25:31;;;;;;;3.72;1.50;;;25.70;57.20;;;;;;5083987;28;20439;-66
2022/09/02 11:28:21;;;;;;;2.80;1.40;;;25.80;57.70;;;;;;5088774;28;20048;-66
2022/09/02 11:30:56;;;;;;;2.35;1.10;;;25.80;56.10;;;;;;5094438;28;20442;-67
2022/09/02 11:33:49;;;;;;;1.98;1.40;;;25.90;56.90;;;;;;5100284;28;20048;-65
2022/09/02 11:36:16;;;;;;;3.20;1.40;;;26.00;55.50;;;;;;5092281;28;20082;-66
2022/09/02 11:38:56;;;;;;;4.28;1.30;;;26.00;56.30;;;;;;5097456;28;20035;-65
2022/09/02 11:41:30;;;;;;;5.13;1.50;;;26.00;55.90;;;;;;5098115;28;20130;-65
2022/09/02 11:44:13;;;;;;;1.65;1.40;;;26.00;56.00;;;;;;5085095;28;20051;-63
2022/09/02 11:46:57;;;;;;;2.88;1.20;;;26.10;55.80;;;;;;5092737;28;20502;-66
2022/09/02 11:49:29;;;;;;;7.28;1.50;;;26.10;55.40;;;;;;5091971;28;20048;-64
2022/09/02 11:52:07;;;;;;;3.40;1.38;;;26.20;54.60;;;;;;5088546;28;20139;-67
2022/09/02 11:54:43;;;;;;;2.80;1.40;;;26.20;54.80;;;;;;5095857;28;20090;-63
2022/09/02 11:57:20;;;;;;;2.10;1.40;;;26.30;54.70;;;;;;5082350;28;20525;-65
2022/09/02 11:59:52;;;;;;;1.95;1.30;;;26.40;53.30;;;;;;5089409;28;20154;-64
2022/09/02 12:02:39;;;;;;;2.00;1.33;;;26.40;53.20;;;;;;5090603;28;20478;-64
2022/09/02 12:05:28;;;;;;;4.22;1.50;;;26.40;53.50;;;;;;5088486;28;20047;-65
2022/09/02 12:07:59;;;;;;;3.15;1.73;;;26.40;53.30;;;;;;5088641;28;20445;-64
2022/09/02 12:10:50;;;;;;;2.40;1.30;;;26.40;53.60;;;;;;5087899;28;20106;-67
2022/09/02 12:13:48;;;;;;;3.90;1.47;;;26.40;53.00;;;;;;5099750;28;20048;-65
2022/09/02 12:16:22;;;;;;;3.58;1.60;;;26.40;53.40;;;;;;5077085;28;20278;-64
2022/09/02 12:18:54;;;;;;;2.60;1.33;;;26.40;53.90;;;;;;5089872;28;20158;-64
2022/09/02 12:21:27;;;;;;;1.42;1.08;;;26.40;54.00;;;;;;5095348;28;20044;-64
2022/09/02 12:23:56;;;;;;;2.60;1.70;;;26.40;52.00;;;;;;5078456;28;20040;-64
2022/09/02 12:26:49;;;;;;;2.55;1.23;;;26.40;52.40;;;;;;5085183;28;20039;-65
2022/09/02 12:29:17;;;;;;;4.45;1.50;;;26.40;52.20;;;;;;5084476;28;20073;-63
2022/09/02 12:31:48;;;;;;;2.90;1.40;;;26.40;52.30;;;;;;5090053;28;20044;-64
2022/09/02 12:34:19;;;;;;;2.30;1.40;;;26.40;52.00;;;;;;5096287;28;20032;-67
2022/09/02 12:36:52;;;;;;;3.53;1.35;;;26.40;51.80;;;;;;5093586;28;20055;-64
2022/09/02 12:39:24;;;;;;;3.20;1.50;;;26.50;51.80;;;;;;5098648;28;20444;-68
2022/09/02 12:42:11;;;;;;;2.40;1.15;;;26.50;51.80;;;;;;5084210;28;20048;-65
2022/09/02 12:44:54;;;;;;;2.35;1.30;;;26.50;51.70;;;;;;5090813;28;20039;-64
2022/09/02 12:47:23;;;;;;;4.93;1.30;;;26.40;51.10;;;;;;5086036;28;20131;-67
2022/09/02 12:50:06;;;;;;;3.45;1.40;;;26.50;52.30;;;;;;5087749;28;20443;-64
2022/09/02 12:52:41;;;;;;;1.92;1.67;;;26.50;51.00;;;;;;5086775;28;20376;-63
2022/09/02 12:55:28;;;;;;;2.20;1.33;;;26.50;51.50;;;;;;5090540;28;20040;-64
2022/09/02 12:58:09;;;;;;;2.33;1.30;;;26.60;50.90;;;;;;5081728;28;20444;-66
2022/09/02 13:00:53;;;;;;;2.30;1.55;;;26.60;51.30;;;;;;5099089;28;20031;-64
2022/09/02 13:03:53;;;;;;;3.00;1.50;;;26.50;49.70;;;;;;5086250;28;20071;-64
2022/09/02 13:06:24;;;;;;;1.63;1.40;;;26.50;50.80;;;;;;5065738;28;20052;-65
2022/09/02 13:09:01;;;;;;;2.95;1.40;;;26.50;50.90;;;;;;5091881;28;20042;-63
2022/09/02 13:11:45;;;;;;;5.03;1.83;;;26.60;50.50;;;;;;5096448;28;20086;-64